createdAt,value
2023-04-09T00:13:39.935Z,22.60
2023-04-09T00:28:42.155Z,19.07
2023-04-09T00:43:44.204Z,18.40
2023-04-09T00:58:46.081Z,17.93
2023-04-09T01:13:59.377Z,19.93
2023-04-09T01:29:03.438Z,15.50
2023-04-09T01:44:07.994Z,12.63
2023-04-09T01:59:09.998Z,10.37
2023-04-09T02:14:12.622Z,10.10
2023-04-09T02:29:14.460Z,11.60
2023-04-09T02:44:16.518Z,11.37
2023-04-09T02:59:18.430Z,12.60
2023-04-09T03:14:20.294Z,12.37
2023-04-09T03:29:22.134Z,11.67
2023-04-09T03:44:24.818Z,12.90
2023-04-09T03:59:26.620Z,11.67
2023-04-09T04:14:28.482Z,13.60
2023-04-09T04:29:30.373Z,14.60
2023-04-09T04:44:32.252Z,14.97
2023-04-09T04:59:36.772Z,15.10
2023-04-09T05:14:38.648Z,17.90
2023-04-09T05:29:40.642Z,19.20
2023-04-09T05:44:42.535Z,20.53
2023-04-09T05:59:44.421Z,17.77
2023-04-09T06:14:48.710Z,19.37
2023-04-09T06:29:50.667Z,19.27
2023-04-09T06:44:52.668Z,13.83
2023-04-09T06:59:55.728Z,14.00
2023-04-09T07:14:59.353Z,8.90
2023-04-09T07:30:01.621Z,9.50
2023-04-09T07:45:03.738Z,8.93
2023-04-09T08:00:08.340Z,11.87
2023-04-09T08:15:10.959Z,8.30
2023-04-09T08:30:13.049Z,10.13
2023-04-09T08:45:15.024Z,10.67
2023-04-09T09:00:17.313Z,11.93
2023-04-09T09:15:28.932Z,9.83
2023-04-09T09:30:32.658Z,8.07
2023-04-09T09:45:36.522Z,8.23
2023-04-09T10:00:40.423Z,6.73
2023-04-09T10:15:44.798Z,7.80
2023-04-09T10:30:46.864Z,8.27
2023-04-09T10:45:53.666Z,8.47
2023-04-09T11:00:57.107Z,8.27
2023-04-09T11:16:00.698Z,8.63
2023-04-09T11:31:06.052Z,7.90
2023-04-09T11:46:09.011Z,10.33
2023-04-09T12:01:11.048Z,8.13
2023-04-09T12:16:13.602Z,8.33
2023-04-09T12:31:15.583Z,7.90
2023-04-09T12:46:20.495Z,7.50
2023-04-09T13:01:22.451Z,6.93
2023-04-09T13:16:24.442Z,7.10
2023-04-09T13:31:26.459Z,5.43
2023-04-09T13:46:28.414Z,6.47
2023-04-09T14:01:30.952Z,6.40
2023-04-09T14:16:33.041Z,6.20
2023-04-09T14:31:35.135Z,6.23
2023-04-09T14:46:37.256Z,13.90
2023-04-09T15:01:39.410Z,14.63
2023-04-09T15:16:41.915Z,18.67
2023-04-09T15:31:44.159Z,12.50
2023-04-09T15:46:46.216Z,10.93
2023-04-09T16:01:48.773Z,13.53
2023-04-09T16:16:51.440Z,13.83
2023-04-09T16:31:53.978Z,10.70
2023-04-09T16:46:56.600Z,11.30
2023-04-09T17:01:58.789Z,15.80
2023-04-09T17:17:00.961Z,11.17
2023-04-09T17:32:02.894Z,13.57
2023-04-09T17:47:07.057Z,19.87
2023-04-09T18:02:09.158Z,21.83
2023-04-09T18:17:11.223Z,18.47
2023-04-09T18:32:13.205Z,17.20
2023-04-09T18:47:15.023Z,14.37
2023-04-09T19:02:16.951Z,15.53
2023-04-09T19:17:18.954Z,14.17
2023-04-09T19:32:20.944Z,12.13
2023-04-09T19:47:22.877Z,11.90
2023-04-09T20:02:25.753Z,10.67
2023-04-09T20:17:27.796Z,11.43
2023-04-09T20:32:29.718Z,11.27
2023-04-09T20:47:31.719Z,11.77
2023-04-09T21:02:33.658Z,11.27
2023-04-09T21:17:35.884Z,11.93
2023-04-09T21:32:37.730Z,14.27
2023-04-09T21:47:39.721Z,11.33
2023-04-09T22:02:42.057Z,11.43
2023-04-09T22:17:44.333Z,13.13
2023-04-09T22:32:46.354Z,9.80
2023-04-09T22:47:48.284Z,9.47
2023-04-09T23:02:51.190Z,8.87
2023-04-09T23:17:53.454Z,7.67
2023-04-09T23:32:57.633Z,7.73
2023-04-09T23:47:59.802Z,7.13
